createdAt,value
2022-10-19T00:01:46.322Z,99318.09
2022-10-19T00:06:50.305Z,99325.97
2022-10-19T00:11:54.031Z,99320.88
2022-10-19T00:16:59.386Z,99301.63
2022-10-19T00:22:03.012Z,99294.19
2022-10-19T00:27:06.552Z,99225.41
2022-10-19T00:32:12.180Z,99088.81
2022-10-19T00:37:16.268Z,99192.56
2022-10-19T00:42:19.827Z,99210.94
2022-10-19T00:47:26.230Z,99287.41
2022-10-19T00:52:30.355Z,99207.03
2022-10-19T00:57:34.927Z,99277.38
2022-10-19T01:02:40.377Z,99257.50
2022-10-19T01:07:44.315Z,99233.34
2022-10-19T01:13:04.538Z,99181.06
2022-10-19T01:18:19.204Z,99229.25
2022-10-19T01:23:58.123Z,99256.66
2022-10-19T01:29:11.915Z,99255.63
2022-10-19T01:34:21.319Z,99248.81
2022-10-19T01:54:38.686Z,99161.50
2022-10-19T01:59:43.071Z,99211.06
2022-10-19T02:04:47.326Z,99103.78
2022-10-19T02:09:52.685Z,99250.53
2022-10-19T02:14:59.945Z,99211.56
2022-10-19T02:21:18.574Z,99249.81
2022-10-19T03:45:04.066Z,99194.56
2022-10-19T04:01:25.777Z,99239.03
2022-10-19T04:06:31.012Z,99183.31
2022-10-19T04:17:27.333Z,99166.59
2022-10-19T04:22:36.100Z,99222.63
2022-10-19T04:51:07.799Z,99167.81
2022-10-19T05:31:09.634Z,99214.25
2022-10-19T05:36:19.059Z,99181.78
2022-10-19T05:41:48.562Z,99203.84
2022-10-19T05:47:19.175Z,99206.38
2022-10-19T06:05:41.826Z,99227.13
2022-10-19T06:16:57.017Z,99200.59
2022-10-19T06:22:06.700Z,99252.25
2022-10-19T06:27:10.163Z,99230.97
2022-10-19T06:32:14.936Z,99256.78
2022-10-19T07:12:41.239Z,99000.63
2022-10-19T07:29:25.224Z,99235.56
2022-10-19T07:34:29.492Z,99304.88
2022-10-19T07:39:35.660Z,99102.09
2022-10-19T07:44:41.430Z,99322.88
2022-10-19T08:41:58.540Z,99245.00
2022-10-19T08:47:12.305Z,99317.41
2022-10-19T08:52:21.538Z,99275.78
2022-10-19T08:57:34.767Z,99289.88
2022-10-19T09:03:03.962Z,99301.16
2022-10-19T09:30:43.058Z,99348.16
2022-10-19T09:35:52.031Z,99231.09
2022-10-19T09:52:56.902Z,99297.25
2022-10-19T11:45:06.865Z,99306.72
2022-10-19T12:14:39.139Z,99270.13
2022-10-19T12:25:50.331Z,99249.69
2022-10-19T15:46:14.100Z,99300.81
2022-10-19T15:51:38.709Z,99281.34
2022-10-19T15:56:43.507Z,99282.56
2022-10-19T16:01:54.997Z,99317.00
2022-10-19T16:07:02.445Z,99185.13
2022-10-19T16:12:06.886Z,99318.19
2022-10-19T16:17:13.731Z,99293.38
2022-10-19T16:22:19.439Z,99319.59
2022-10-19T16:27:23.780Z,99326.91
2022-10-19T16:32:28.383Z,99297.34
2022-10-19T16:37:34.465Z,99333.69
2022-10-19T16:42:38.290Z,99341.34
2022-10-19T16:47:41.991Z,99341.94
2022-10-19T16:52:47.983Z,99358.84
2022-10-19T16:57:52.887Z,99277.06
2022-10-19T17:02:56.274Z,99357.16
2022-10-19T17:08:01.267Z,99262.41
2022-10-19T17:13:04.759Z,99358.88
2022-10-19T17:18:08.208Z,99265.78
2022-10-19T17:23:13.534Z,99374.66
2022-10-19T17:28:17.350Z,99280.75
2022-10-19T17:33:21.427Z,99376.63
2022-10-19T17:38:26.744Z,99256.78
2022-10-19T17:43:30.206Z,99423.50
2022-10-19T17:48:33.822Z,99305.81
2022-10-19T17:53:38.847Z,99410.25
2022-10-19T17:58:42.605Z,99398.38
2022-10-19T18:03:46.142Z,99348.13
2022-10-19T18:08:52.378Z,99416.13
2022-10-19T18:13:56.971Z,99367.84
2022-10-19T18:19:02.327Z,99409.66
2022-10-19T18:24:12.722Z,99409.63
2022-10-19T18:29:20.723Z,99403.41
2022-10-19T18:34:27.256Z,99413.28
2022-10-19T18:39:32.663Z,99424.22
2022-10-19T18:44:36.096Z,99383.28
2022-10-19T18:49:39.566Z,99430.97
2022-10-19T19:12:16.797Z,99387.91
2022-10-19T19:17:20.240Z,99348.59
2022-10-19T19:22:26.149Z,99407.66
2022-10-19T19:46:44.596Z,99432.00
2022-10-19T19:51:47.917Z,99442.72
2022-10-19T19:56:51.651Z,99447.78
2022-10-19T20:01:56.536Z,99452.84
2022-10-19T20:07:00.079Z,99404.09
2022-10-19T20:12:03.988Z,99463.75
2022-10-19T20:17:08.746Z,99466.22
2022-10-19T20:22:13.144Z,99470.13
2022-10-19T20:27:16.582Z,99467.94
2022-10-19T20:32:21.370Z,99451.59
2022-10-19T20:37:25.750Z,99367.91
2022-10-19T20:42:29.210Z,99474.88
2022-10-19T20:47:34.030Z,99323.06
2022-10-19T20:52:38.587Z,99449.78
2022-10-19T20:57:44.541Z,99478.88
2022-10-19T21:14:25.300Z,99424.25
2022-10-19T21:19:32.174Z,99510.88
2022-10-19T21:24:42.823Z,99442.22
2022-10-19T22:15:48.558Z,99477.00
2022-10-19T22:21:17.827Z,99499.81
